createdAt,value
2023-01-17T00:02:22.171Z,94035.81
2023-01-17T00:05:07.476Z,94035.81
2023-01-17T00:07:53.406Z,94040.94
2023-01-17T00:10:26.811Z,94042.13
2023-01-17T00:13:00.212Z,94042.78
2023-01-17T00:15:29.371Z,94052.38
2023-01-17T00:17:56.637Z,94053.00
2023-01-17T00:20:46.113Z,94060.78
2023-01-17T00:23:41.041Z,94050.16
2023-01-17T00:26:16.974Z,94057.47
2023-01-17T00:28:44.516Z,94059.97
2023-01-17T00:31:13.932Z,94050.16
2023-01-17T00:33:40.711Z,94059.97
2023-01-17T00:36:08.350Z,94066.47
2023-01-17T00:38:38.110Z,94062.34
2023-01-17T00:41:13.644Z,94061.72
2023-01-17T00:43:59.283Z,94079.28
2023-01-17T00:46:45.062Z,94070.88
2023-01-17T00:49:30.224Z,94074.09
2023-01-17T00:52:15.614Z,94074.44
2023-01-17T00:55:00.912Z,94103.03
2023-01-17T00:57:46.063Z,94089.09
2023-01-17T01:00:32.379Z,94086.66
2023-01-17T01:03:17.832Z,94091.34
2023-01-17T01:06:02.945Z,94107.41
2023-01-17T01:08:49.050Z,94105.78
2023-01-17T01:11:38.782Z,94100.47
2023-01-17T01:14:26.122Z,94104.50
2023-01-17T01:17:11.339Z,94101.28
2023-01-17T01:19:56.534Z,94097.81
2023-01-17T01:22:42.352Z,94096.81
2023-01-17T01:25:28.234Z,94083.38
2023-01-17T01:28:23.439Z,94087.47
2023-01-17T01:31:08.549Z,94089.19
2023-01-17T01:33:35.755Z,94089.28
2023-01-17T01:36:02.503Z,94085.25
2023-01-17T01:38:29.253Z,94100.41
2023-01-17T01:40:56.857Z,94104.34
2023-01-17T01:43:51.131Z,94101.69
2023-01-17T01:46:31.355Z,94099.28
2023-01-17T01:49:05.789Z,94101.34
2023-01-17T01:51:42.629Z,94106.94
2023-01-17T01:54:21.530Z,94103.72
2023-01-17T01:56:49.680Z,94107.66
2023-01-17T01:59:19.417Z,94115.41
2023-01-17T02:01:48.371Z,94120.53
2023-01-17T02:04:15.396Z,94113.22
2023-01-17T02:06:47.673Z,94110.56
2023-01-17T02:09:16.209Z,94112.03
2023-01-17T02:11:44.416Z,94108.34
2023-01-17T02:14:22.312Z,94100.56
2023-01-17T02:17:16.787Z,94106.72
2023-01-17T02:20:34.398Z,94107.69
2023-01-17T02:23:28.311Z,94102.59
2023-01-17T02:26:32.156Z,94100.94
2023-01-17T02:29:44.307Z,94101.31
2023-01-17T02:32:35.547Z,94095.38
2023-01-17T02:35:22.298Z,94100.50
2023-01-17T02:38:04.873Z,94093.56
2023-01-17T02:40:42.047Z,94096.38
2023-01-17T02:43:14.022Z,94096.75
2023-01-17T02:45:40.869Z,94097.78
2023-01-17T02:48:10.608Z,94101.00
2023-01-17T02:50:52.179Z,94102.22
2023-01-17T02:54:38.499Z,94100.28
2023-01-17T02:57:35.481Z,94104.41
2023-01-17T03:00:58.174Z,94093.16
2023-01-17T03:03:46.790Z,94090.13
2023-01-17T03:06:38.757Z,94102.38
2023-01-17T03:09:06.144Z,94115.09
2023-01-17T03:11:33.333Z,94113.69
2023-01-17T03:14:00.442Z,94117.81
2023-01-17T03:16:31.981Z,94118.66
2023-01-17T03:18:58.795Z,94132.16
2023-01-17T03:21:25.819Z,94131.16
2023-01-17T03:23:52.586Z,94122.78
2023-01-17T03:26:19.343Z,94133.31
2023-01-17T03:28:46.158Z,94135.88
2023-01-17T03:31:17.800Z,94128.69
2023-01-17T03:33:44.615Z,94130.69
2023-01-17T03:36:12.077Z,94127.78
2023-01-17T03:38:39.038Z,94125.69
2023-01-17T03:41:06.399Z,94122.78
2023-01-17T03:43:33.366Z,94110.88
2023-01-17T03:46:16.347Z,94113.28
2023-01-17T03:48:43.165Z,94108.94
2023-01-17T03:51:09.931Z,94101.38
2023-01-17T03:53:36.700Z,94101.94
2023-01-17T03:56:03.572Z,94093.53
2023-01-17T03:58:30.356Z,94096.75
2023-01-17T04:00:57.243Z,94096.28
2023-01-17T04:03:24.125Z,94099.09
2023-01-17T04:05:50.905Z,94093.81
2023-01-17T04:08:17.968Z,94098.13
2023-01-17T04:10:44.728Z,94101.59
2023-01-17T04:13:11.944Z,94103.22
2023-01-17T04:15:38.713Z,94104.88
2023-01-17T04:18:06.798Z,94107.53
2023-01-17T04:20:38.773Z,94104.88
2023-01-17T04:23:06.205Z,94117.13
2023-01-17T04:25:33.109Z,94101.41
2023-01-17T04:28:02.164Z,94108.53
2023-01-17T04:30:29.926Z,94116.50
2023-01-17T04:32:57.581Z,94118.34
2023-01-17T04:35:25.042Z,94120.16
2023-01-17T04:37:52.576Z,94124.00
2023-01-17T04:40:19.693Z,94134.41
2023-01-17T04:42:47.592Z,94127.47
2023-01-17T04:45:15.368Z,94128.28
2023-01-17T04:47:42.472Z,94127.31
2023-01-17T04:50:10.683Z,94130.31
2023-01-17T04:52:37.561Z,94119.88
2023-01-17T04:55:05.290Z,94122.09
2023-01-17T04:57:32.076Z,94126.13
2023-01-17T04:59:58.915Z,94127.31
2023-01-17T05:02:25.715Z,94134.63
2023-01-17T05:04:52.543Z,94137.44
2023-01-17T05:07:19.299Z,94136.16
2023-01-17T05:09:46.162Z,94130.41
2023-01-17T05:12:12.916Z,94133.44
2023-01-17T05:14:39.710Z,94124.19
2023-01-17T05:17:06.570Z,94126.16
2023-01-17T05:19:33.370Z,94115.09
2023-01-17T05:22:03.764Z,94117.13
2023-01-17T05:24:31.377Z,94116.66
2023-01-17T05:27:02.841Z,94117.66
2023-01-17T05:29:30.340Z,94113.53
2023-01-17T05:31:57.454Z,94119.88
2023-01-17T05:34:24.479Z,94114.56
2023-01-17T05:36:51.487Z,94114.72
2023-01-17T05:39:18.829Z,94112.25
2023-01-17T05:41:45.636Z,94108.78
2023-01-17T05:44:12.497Z,94101.03
2023-01-17T05:46:39.382Z,94092.22
2023-01-17T05:49:06.255Z,94094.06
2023-01-17T05:51:37.553Z,94098.75
2023-01-17T05:54:05.731Z,94093.16
2023-01-17T05:56:33.300Z,94098.00
2023-01-17T05:59:00.193Z,94085.31
2023-01-17T06:01:26.985Z,94087.84
2023-01-17T06:03:53.757Z,94083.91
2023-01-17T06:06:20.586Z,94090.91
2023-01-17T06:08:47.378Z,94079.22
2023-01-17T06:11:14.351Z,94070.81
2023-01-17T06:13:41.112Z,94073.81
2023-01-17T06:16:08.381Z,94074.19
2023-01-17T06:18:35.195Z,94071.06
2023-01-17T06:21:02.034Z,94073.06
2023-01-17T06:23:29.291Z,94067.31
2023-01-17T06:25:56.087Z,94068.31
2023-01-17T06:28:23.663Z,94064.03
2023-01-17T06:30:50.472Z,94059.75
2023-01-17T06:33:17.515Z,94061.38
2023-01-17T06:35:51.941Z,94058.91
2023-01-17T06:38:19.215Z,94055.88
2023-01-17T06:40:45.993Z,94053.91
2023-01-17T06:43:12.788Z,94067.13
2023-01-17T06:45:39.616Z,94069.59
2023-01-17T06:48:06.822Z,94067.97
2023-01-17T06:50:33.937Z,94064.66
2023-01-17T06:53:04.168Z,94066.84
2023-01-17T06:55:33.592Z,94066.19
2023-01-17T06:58:02.445Z,94067.38
2023-01-17T07:00:30.908Z,94066.75
2023-01-17T07:02:57.899Z,94057.78
2023-01-17T07:05:24.792Z,94049.03
2023-01-17T07:07:51.850Z,94045.56
2023-01-17T07:10:18.638Z,94041.09
2023-01-17T07:12:45.609Z,94041.09
2023-01-17T07:15:13.030Z,94045.56
2023-01-17T07:17:40.038Z,94047.38
2023-01-17T07:20:09.718Z,94035.16
2023-01-17T07:22:37.553Z,94042.25
2023-01-17T07:25:05.042Z,94040.63
2023-01-17T07:27:33.353Z,94037.16
2023-01-17T07:30:00.352Z,94029.41
2023-01-17T07:32:27.494Z,94033.03
2023-01-17T07:34:57.275Z,94021.63
2023-01-17T07:37:25.837Z,94020.78
2023-01-17T07:39:53.650Z,94025.47
2023-01-17T07:42:22.210Z,94019.34
2023-01-17T07:44:50.581Z,94030.75
2023-01-17T07:47:17.442Z,94030.75
2023-01-17T07:49:44.237Z,94029.75
2023-01-17T07:52:11.020Z,94027.72
2023-01-17T07:54:37.822Z,94037.34
2023-01-17T07:57:04.662Z,94032.03
2023-01-17T07:59:33.667Z,94024.72
2023-01-17T08:02:00.807Z,94022.09
2023-01-17T08:04:28.651Z,94029.00
2023-01-17T08:06:55.457Z,94028.03
2023-01-17T08:09:22.341Z,94027.03
2023-01-17T08:11:49.180Z,94020.72
2023-01-17T08:14:16.008Z,94025.66
2023-01-17T08:16:43.058Z,94029.94
2023-01-17T08:19:10.302Z,94030.59
2023-01-17T08:21:37.366Z,94024.13
2023-01-17T08:24:04.621Z,94024.59
2023-01-17T08:26:31.440Z,94025.03
2023-01-17T08:29:00.818Z,94030.63
2023-01-17T08:31:33.996Z,94023.97
2023-01-17T08:34:00.988Z,94019.78
2023-01-17T08:36:28.593Z,94020.66
2023-01-17T08:38:55.529Z,94019.78
2023-01-17T08:41:24.115Z,94019.88
2023-01-17T08:43:52.161Z,94019.94
2023-01-17T08:46:19.276Z,94013.94
2023-01-17T08:48:46.338Z,94021.94
2023-01-17T08:51:13.486Z,94011.44
2023-01-17T08:53:40.585Z,94012.16
2023-01-17T08:56:07.679Z,94010.44
2023-01-17T08:58:35.748Z,94008.72
2023-01-17T09:01:04.622Z,94007.13
2023-01-17T09:03:32.752Z,94001.72
2023-01-17T09:06:10.503Z,94006.47
2023-01-17T09:08:38.546Z,94000.84
2023-01-17T09:11:11.213Z,94002.56
2023-01-17T09:13:39.312Z,93996.13
2023-01-17T09:16:06.903Z,93997.00
2023-01-17T09:18:35.331Z,93994.44
2023-01-17T09:21:16.951Z,94003.25
2023-01-17T09:23:44.982Z,93997.63
2023-01-17T09:26:27.086Z,93991.56
2023-01-17T09:28:55.263Z,93981.81
2023-01-17T09:31:23.459Z,93985.53
2023-01-17T09:33:51.714Z,93977.81
2023-01-17T09:36:18.706Z,93973.78
2023-01-17T09:38:46.219Z,93979.13
2023-01-17T09:41:36.291Z,93982.22
2023-01-17T09:44:21.423Z,93983.91
2023-01-17T09:46:50.198Z,93984.38
2023-01-17T09:49:42.589Z,93987.47
2023-01-17T09:52:14.803Z,93969.50
2023-01-17T09:54:43.478Z,93972.00
2023-01-17T09:57:24.817Z,93974.72
2023-01-17T10:00:45.014Z,93978.25
2023-01-17T10:03:52.406Z,93969.91
2023-01-17T10:06:36.570Z,93969.53
2023-01-17T10:09:38.076Z,93957.69
2023-01-17T10:12:51.197Z,93956.94
2023-01-17T10:15:37.561Z,93954.31
2023-01-17T10:18:30.459Z,93964.38
2023-01-17T10:21:12.870Z,93965.25
2023-01-17T10:24:24.283Z,93962.81
2023-01-17T10:26:58.240Z,93964.66
2023-01-17T10:29:31.622Z,93954.41
2023-01-17T10:32:00.863Z,93954.41
2023-01-17T10:34:32.054Z,93951.34
2023-01-17T10:37:15.831Z,93952.78
2023-01-17T10:39:49.583Z,93953.56
2023-01-17T10:42:46.788Z,93950.50
2023-01-17T10:45:21.315Z,93951.28
2023-01-17T10:48:04.976Z,93949.81
2023-01-17T10:50:49.234Z,93951.66
2023-01-17T10:53:57.368Z,93949.13
2023-01-17T10:56:28.575Z,93942.50
2023-01-17T10:59:29.740Z,93939.34
2023-01-17T11:02:00.680Z,93935.41
2023-01-17T11:04:40.189Z,93943.16
2023-01-17T11:07:28.889Z,93949.06
2023-01-17T11:09:57.971Z,93942.03
2023-01-17T11:13:00.255Z,93928.63
2023-01-17T11:15:27.174Z,93916.38
2023-01-17T11:18:07.434Z,93915.28
2023-01-17T11:20:40.893Z,93919.47
2023-01-17T11:23:21.957Z,93909.13
2023-01-17T11:25:56.950Z,93905.28
2023-01-17T11:28:30.608Z,93884.13
2023-01-17T11:31:01.865Z,93882.28
2023-01-17T11:33:55.414Z,93875.06
2023-01-17T11:36:28.396Z,93878.47
2023-01-17T11:39:22.680Z,93884.72
2023-01-17T11:41:50.878Z,93884.34
2023-01-17T11:44:22.349Z,93882.75
2023-01-17T11:46:49.703Z,93878.25
2023-01-17T11:49:25.871Z,93856.03
2023-01-17T11:51:56.039Z,93844.88
2023-01-17T11:54:38.828Z,93843.88
2023-01-17T11:57:08.597Z,93845.63
2023-01-17T11:59:37.632Z,93826.09
2023-01-17T12:02:38.166Z,93826.34
2023-01-17T12:05:39.565Z,93813.94
2023-01-17T12:08:09.367Z,93809.25
2023-01-17T12:11:18.695Z,93803.38
2023-01-17T12:14:25.212Z,93791.22
2023-01-17T12:18:01.953Z,93784.16
2023-01-17T12:20:43.380Z,93778.78
2023-01-17T12:23:38.663Z,93784.19
2023-01-17T12:26:27.513Z,93781.19
2023-01-17T12:30:09.080Z,93779.84
2023-01-17T12:33:02.727Z,93769.78
2023-01-17T12:35:42.030Z,93772.72
2023-01-17T12:38:31.795Z,93763.22
2023-01-17T12:41:17.671Z,93758.97
2023-01-17T12:43:44.822Z,93757.94
2023-01-17T12:46:21.252Z,93755.72
2023-01-17T12:48:54.515Z,93747.44
2023-01-17T12:51:40.567Z,93743.91
2023-01-17T12:54:10.112Z,93736.09
2023-01-17T12:56:46.082Z,93733.88
2023-01-17T13:00:02.187Z,93715.66
2023-01-17T13:02:47.549Z,93720.94
2023-01-17T13:05:23.703Z,93726.72
2023-01-17T13:08:06.728Z,93728.50
2023-01-17T13:10:51.069Z,93724.94
2023-01-17T13:13:25.507Z,93721.97
2023-01-17T13:16:23.648Z,93715.38
2023-01-17T13:18:51.787Z,93714.38
2023-01-17T13:21:34.416Z,93722.56
2023-01-17T13:24:19.813Z,93721.34
2023-01-17T13:26:55.379Z,93714.28
2023-01-17T13:29:33.586Z,93716.66
2023-01-17T13:32:50.542Z,93714.47
2023-01-17T13:35:54.605Z,93721.09
2023-01-17T13:38:54.772Z,93722.59
2023-01-17T13:41:52.463Z,93721.03
2023-01-17T13:44:22.745Z,93715.09
2023-01-17T13:47:18.463Z,93720.31
2023-01-17T13:49:51.438Z,93733.88
2023-01-17T13:52:21.152Z,93727.56
2023-01-17T13:54:58.354Z,93719.81
2023-01-17T13:57:39.956Z,93725.34
2023-01-17T14:00:21.280Z,93725.41
2023-01-17T14:02:49.951Z,93722.94
2023-01-17T14:05:39.751Z,93724.63
2023-01-17T14:08:16.142Z,93724.63
2023-01-17T14:10:47.571Z,93731.59
2023-01-17T14:13:38.431Z,93735.94
2023-01-17T14:16:27.846Z,93733.69
2023-01-17T14:18:55.660Z,93732.66
2023-01-17T14:21:31.470Z,93731.25
2023-01-17T14:24:09.598Z,93726.09
2023-01-17T14:26:59.313Z,93726.75
2023-01-17T14:30:00.667Z,93734.34
2023-01-17T14:32:32.434Z,93733.34
2023-01-17T14:34:59.703Z,93726.34
2023-01-17T14:37:37.965Z,93722.69
2023-01-17T14:40:26.247Z,93726.59
2023-01-17T14:43:12.682Z,93723.53
2023-01-17T14:45:41.413Z,93731.53
2023-01-17T14:48:18.980Z,93723.16
2023-01-17T14:50:48.232Z,93728.50
2023-01-17T14:53:21.574Z,93727.06
2023-01-17T14:55:48.191Z,93724.41
2023-01-17T14:58:32.650Z,93726.06
2023-01-17T15:01:10.285Z,93728.94
2023-01-17T15:03:50.997Z,93729.56
2023-01-17T15:06:40.315Z,93731.41
2023-01-17T15:09:17.001Z,93723.84
2023-01-17T15:11:45.687Z,93725.50
2023-01-17T15:14:21.002Z,93735.53
2023-01-17T15:16:47.924Z,93733.50
2023-01-17T15:19:15.369Z,93730.81
2023-01-17T15:21:44.017Z,93720.34
2023-01-17T15:24:17.378Z,93725.91
2023-01-17T15:26:44.542Z,93722.22
2023-01-17T15:29:25.336Z,93722.84
2023-01-17T15:31:58.296Z,93722.84
2023-01-17T15:34:35.434Z,93717.13
2023-01-17T15:37:20.937Z,93713.00
2023-01-17T15:39:48.944Z,93718.34
2023-01-17T15:42:26.438Z,93716.53
2023-01-17T15:45:01.577Z,93719.41
2023-01-17T15:47:35.418Z,93715.31
2023-01-17T15:50:30.648Z,93714.91
2023-01-17T15:53:04.612Z,93715.72
2023-01-17T15:55:35.127Z,93721.28
2023-01-17T15:58:05.128Z,93723.31
2023-01-17T16:00:41.714Z,93725.59
2023-01-17T16:03:31.705Z,93734.81
2023-01-17T16:06:01.022Z,93723.94
2023-01-17T16:08:33.021Z,93735.63
2023-01-17T16:11:05.329Z,93729.28
2023-01-17T16:13:36.971Z,93734.00
2023-01-17T16:16:16.709Z,93735.22
2023-01-17T16:18:44.337Z,93735.84
2023-01-17T16:21:23.616Z,93730.31
2023-01-17T16:23:51.790Z,93730.31
2023-01-17T16:26:19.086Z,93734.81
2023-01-17T16:28:46.102Z,93735.63
2023-01-17T16:31:13.004Z,93734.81
2023-01-17T16:33:42.295Z,93731.16
2023-01-17T16:36:16.353Z,93728.09
2023-01-17T16:38:45.428Z,93728.69
2023-01-17T16:41:12.412Z,93729.50
2023-01-17T16:43:39.272Z,93731.97
2023-01-17T16:46:06.711Z,93732.16
2023-01-17T16:48:33.619Z,93731.16
2023-01-17T16:51:06.696Z,93734.00
2023-01-17T16:53:33.879Z,93731.97
2023-01-17T16:56:14.442Z,93728.69
2023-01-17T16:58:41.590Z,93735.44
2023-01-17T17:01:11.122Z,93732.97
2023-01-17T17:03:38.089Z,93734.81
2023-01-17T17:06:05.010Z,93730.75
2023-01-17T17:08:35.156Z,93734.41
2023-01-17T17:11:20.975Z,93737.91
2023-01-17T17:13:49.771Z,93737.91
2023-01-17T17:16:29.888Z,93743.88
2023-01-17T17:19:00.774Z,93748.56
2023-01-17T17:21:29.310Z,93754.94
2023-01-17T17:23:58.767Z,93752.88
2023-01-17T17:26:30.794Z,93765.16
2023-01-17T17:28:58.256Z,93760.22
2023-01-17T17:31:25.457Z,93765.53
2023-01-17T17:33:52.251Z,93779.69
2023-01-17T17:36:19.440Z,93775.38
2023-01-17T17:38:51.929Z,93783.34
2023-01-17T17:41:25.394Z,93783.34
2023-01-17T17:43:52.735Z,93783.16
2023-01-17T17:46:21.734Z,93795.41
2023-01-17T17:48:49.022Z,93787.44
2023-01-17T17:51:31.376Z,93806.63
2023-01-17T17:54:01.584Z,93799.44
2023-01-17T17:56:30.557Z,93800.25
2023-01-17T17:58:58.614Z,93795.75
2023-01-17T18:01:25.613Z,93800.81
2023-01-17T18:03:56.696Z,93813.28
2023-01-17T18:06:24.094Z,93813.69
2023-01-17T18:08:52.011Z,93817.94
2023-01-17T18:11:25.962Z,93815.25
2023-01-17T18:13:55.269Z,93820.16
2023-01-17T18:16:32.698Z,93823.41
2023-01-17T18:18:59.904Z,93821.94
2023-01-17T18:21:30.758Z,93821.94
2023-01-17T18:24:03.756Z,93831.50
2023-01-17T18:26:43.481Z,93824.09
2023-01-17T18:29:14.532Z,93828.56
2023-01-17T18:31:42.940Z,93821.44
2023-01-17T18:34:14.259Z,93830.81
2023-01-17T18:36:41.874Z,93832.44
2023-01-17T18:39:17.192Z,93829.34
2023-01-17T18:41:44.509Z,93830.38
2023-01-17T18:44:11.869Z,93841.16
2023-01-17T18:46:40.412Z,93828.09
2023-01-17T18:49:10.470Z,93830.16
2023-01-17T18:51:37.365Z,93826.47
2023-01-17T18:54:06.806Z,93829.94
2023-01-17T18:56:35.078Z,93823.75
2023-01-17T18:59:02.702Z,93828.31
2023-01-17T19:01:34.279Z,93821.75
2023-01-17T19:04:04.656Z,93825.22
2023-01-17T19:06:41.957Z,93827.06
2023-01-17T19:09:11.833Z,93831.94
2023-01-17T19:11:39.335Z,93827.50
2023-01-17T19:14:06.964Z,93825.44
2023-01-17T19:16:39.160Z,93823.81
2023-01-17T19:19:09.460Z,93821.75
2023-01-17T19:21:36.568Z,93827.50
2023-01-17T19:24:03.942Z,93830.00
2023-01-17T19:26:30.913Z,93831.78
2023-01-17T19:28:58.874Z,93838.78
2023-01-17T19:31:28.778Z,93834.28
2023-01-17T19:33:58.257Z,93843.66
2023-01-17T19:36:37.836Z,93843.06
2023-01-17T19:39:09.288Z,93841.84
2023-01-17T19:41:41.657Z,93842.69
2023-01-17T19:44:10.600Z,93837.78
2023-01-17T19:46:38.162Z,93846.38
2023-01-17T19:49:07.470Z,93844.34
2023-01-17T19:51:35.714Z,93834.13
2023-01-17T19:54:03.920Z,93833.97
2023-01-17T19:56:30.825Z,93836.41
2023-01-17T19:59:00.900Z,93832.94
2023-01-17T20:01:31.450Z,93836.41
2023-01-17T20:04:00.467Z,93824.75
2023-01-17T20:06:32.102Z,93830.28
2023-01-17T20:08:59.332Z,93827.25
2023-01-17T20:11:28.081Z,93827.25
2023-01-17T20:13:57.970Z,93825.19
2023-01-17T20:16:26.105Z,93822.09
2023-01-17T20:18:53.175Z,93824.19
2023-01-17T20:21:26.263Z,93827.84
2023-01-17T20:23:54.832Z,93827.69
2023-01-17T20:26:30.851Z,93819.72
2023-01-17T20:28:57.809Z,93820.09
2023-01-17T20:31:26.615Z,93827.25
2023-01-17T20:33:55.852Z,93829.91
2023-01-17T20:36:29.227Z,93827.47
2023-01-17T20:38:57.189Z,93825.41
2023-01-17T20:41:29.739Z,93829.09
2023-01-17T20:43:59.009Z,93829.09
2023-01-17T20:46:29.341Z,93823.19
2023-01-17T20:48:57.897Z,93820.31
2023-01-17T20:51:27.268Z,93826.66
2023-01-17T20:54:02.462Z,93827.84
2023-01-17T20:56:34.300Z,93826.00
2023-01-17T20:59:06.057Z,93825.41
2023-01-17T21:01:34.186Z,93816.81
2023-01-17T21:04:01.611Z,93828.44
2023-01-17T21:06:28.864Z,93819.88
2023-01-17T21:08:55.713Z,93823.34
2023-01-17T21:11:24.990Z,93822.69
2023-01-17T21:13:51.902Z,93826.19
2023-01-17T21:16:22.719Z,93834.34
2023-01-17T21:18:51.525Z,93827.19
2023-01-17T21:21:21.951Z,93828.22
2023-01-17T21:23:51.443Z,93828.00
2023-01-17T21:26:19.471Z,93834.13
2023-01-17T21:28:48.435Z,93828.84
2023-01-17T21:31:28.096Z,93827.84
2023-01-17T21:34:05.499Z,93834.97
2023-01-17T21:36:36.481Z,93832.13
2023-01-17T21:39:18.689Z,93836.41
2023-01-17T21:41:48.242Z,93830.91
2023-01-17T21:44:22.867Z,93833.97
2023-01-17T21:46:56.188Z,93836.63
2023-01-17T21:49:23.696Z,93832.50
2023-01-17T21:51:53.016Z,93829.03
2023-01-17T21:55:04.124Z,93836.78
2023-01-17T21:57:49.387Z,93832.91
2023-01-17T22:00:23.592Z,93837.78
2023-01-17T22:02:50.523Z,93846.38
2023-01-17T22:05:22.552Z,93845.75
2023-01-17T22:08:07.953Z,93836.38
2023-01-17T22:10:44.441Z,93841.69
2023-01-17T22:13:18.585Z,93834.72
2023-01-17T22:15:45.795Z,93837.22
2023-01-17T22:18:15.668Z,93847.19
2023-01-17T22:20:42.952Z,93839.88
2023-01-17T22:23:10.333Z,93844.34
2023-01-17T22:25:37.215Z,93843.34
2023-01-17T22:28:04.437Z,93846.59
2023-01-17T22:30:31.272Z,93843.94
2023-01-17T22:32:58.881Z,93850.91
2023-01-17T22:35:25.876Z,93849.25
2023-01-17T22:37:54.069Z,93843.94
2023-01-17T22:40:21.641Z,93840.28
2023-01-17T22:42:48.494Z,93840.28
2023-01-17T22:45:17.193Z,93840.09
2023-01-17T22:47:44.445Z,93836.41
2023-01-17T22:50:12.190Z,93835.59
2023-01-17T22:52:38.996Z,93839.06
2023-01-17T22:55:06.369Z,93833.97
2023-01-17T22:57:33.813Z,93839.44
2023-01-17T23:00:00.580Z,93835.16
2023-01-17T23:02:27.446Z,93838.03
2023-01-17T23:04:54.630Z,93839.03
2023-01-17T23:07:26.308Z,93845.19
2023-01-17T23:09:53.400Z,93844.34
2023-01-17T23:12:20.198Z,93839.88
2023-01-17T23:15:18.916Z,93842.53
2023-01-17T23:18:04.122Z,93829.41
2023-01-17T23:20:30.866Z,93837.59
2023-01-17T23:22:57.960Z,93837.59
2023-01-17T23:25:24.961Z,93834.94
2023-01-17T23:28:10.271Z,93824.09
2023-01-17T23:30:40.420Z,93828.59
2023-01-17T23:33:12.267Z,93824.91
2023-01-17T23:35:42.514Z,93833.91
2023-01-17T23:38:25.798Z,93829.00
2023-01-17T23:41:12.662Z,93828.16
2023-01-17T23:43:39.600Z,93835.31
2023-01-17T23:46:12.127Z,93833.03
2023-01-17T23:48:38.973Z,93834.06
2023-01-17T23:51:08.911Z,93832.66
2023-01-17T23:53:38.110Z,93834.88
2023-01-17T23:56:10.915Z,93842.19
2023-01-17T23:58:37.672Z,93842.00
